Time;durP1;ratioP1;P1;durP2;ratioP2;P2;SDS_P1;SDS_P2;PMS_P1;PMS_P2;Temp;Humidity;BMP_temperature;BMP_pressure;BME280_temperature;BME280_humidity;BME280_pressure;Samples;Min_cycle;Max_cycle;Signal;HPM_P1;HPM_P2
2021/08/16 00:00:17;;;;;;;8.18;5.10;;;;;;;19.82;60.80;99950.88;4900814;28;97873;-70
2021/08/16 00:02:45;;;;;;;7.70;5.35;;;;;;;19.81;60.75;99948.47;4902159;28;98253;-70
2021/08/16 00:05:12;;;;;;;6.95;5.15;;;;;;;19.82;61.05;99950.88;4902709;28;98733;-67
2021/08/16 00:07:38;;;;;;;6.72;5.40;;;;;;;19.80;61.08;99947.66;4914609;28;98052;-70
2021/08/16 00:10:05;;;;;;;7.32;5.55;;;;;;;19.78;60.85;99943.69;4921143;28;97855;-69
2021/08/16 00:12:32;;;;;;;8.50;5.68;;;;;;;19.71;60.91;99944.25;4921606;28;98545;-70
2021/08/16 00:14:58;;;;;;;5.90;5.30;;;;;;;19.66;61.49;99939.00;4920901;28;98054;-69
2021/08/16 00:17:24;;;;;;;7.35;5.63;;;;;;;19.63;61.46;99936.94;4921108;28;98074;-66
2021/08/16 00:19:50;;;;;;;7.50;5.47;;;;;;;19.61;61.53;99928.28;4921930;28;98099;-66
2021/08/16 00:22:16;;;;;;;7.63;5.18;;;;;;;19.58;61.43;99928.97;4919717;28;98493;-67
2021/08/16 00:24:42;;;;;;;8.43;6.03;;;;;;;19.52;61.70;99928.38;4916075;28;101853;-69
2021/08/16 00:27:08;;;;;;;7.60;5.45;;;;;;;19.44;61.71;99923.00;4900624;28;105506;-66
2021/08/16 00:29:34;;;;;;;7.53;5.85;;;;;;;19.34;62.30;99914.13;4898774;28;112765;-69
2021/08/16 00:32:00;;;;;;;6.70;5.50;;;;;;;19.30;61.98;99921.41;4899074;28;121623;-67
2021/08/16 00:34:26;;;;;;;7.07;5.60;;;;;;;19.24;61.85;99917.28;4906678;28;119118;-70
2021/08/16 00:36:53;;;;;;;6.85;5.38;;;;;;;19.23;62.25;99909.44;4920709;28;108245;-67
2021/08/16 00:39:19;;;;;;;7.35;5.32;;;;;;;19.24;62.54;99911.81;4919235;28;116497;-67
2021/08/16 00:41:48;;;;;;;5.82;5.22;;;;;;;19.27;62.46;99911.16;4918466;28;99995;-67
2021/08/16 00:44:15;;;;;;;7.93;5.93;;;;;;;19.33;62.35;99911.72;4921854;28;108107;-67
2021/08/16 00:46:41;;;;;;;7.60;5.60;;;;;;;19.31;62.17;99905.81;4914024;28;98097;-70
2021/08/16 00:49:07;;;;;;;6.45;5.45;;;;;;;19.29;62.05;99899.88;4883724;28;97829;-67
2021/08/16 00:51:36;;;;;;;9.15;5.68;;;;;;;19.29;62.26;99899.88;4901160;28;98423;-71
2021/08/16 00:54:08;;;;;;;6.65;5.53;;;;;;;19.27;62.11;99908.41;4915822;28;100341;-70
2021/08/16 00:56:38;;;;;;;7.85;5.45;;;;;;;19.31;62.14;99905.81;4899109;28;99212;-70
2021/08/16 00:59:12;;;;;;;7.25;5.70;;;;;;;19.29;62.09;99897.94;4868719;28;97903;-71
2021/08/16 01:01:39;;;;;;;6.43;5.80;;;;;;;19.30;62.32;99896.81;4883740;28;98441;-67
2021/08/16 01:04:05;;;;;;;8.52;5.28;;;;;;;19.28;62.57;99899.06;4899565;28;98215;-70
2021/08/16 01:06:31;;;;;;;7.82;5.68;;;;;;;19.28;62.90;99893.59;4898171;28;127926;-70
2021/08/16 01:08:58;;;;;;;6.05;5.15;;;;;;;19.27;62.36;99891.22;4900115;28;97756;-70
2021/08/16 01:11:24;;;;;;;6.55;5.63;;;;;;;19.26;62.58;99893.16;4883180;28;98267;-67
2021/08/16 01:13:50;;;;;;;7.82;5.85;;;;;;;19.23;62.92;99888.38;4899415;28;101001;-67
2021/08/16 01:16:18;;;;;;;6.55;5.63;;;;;;;19.17;62.63;99884.25;4882204;28;126181;-70
2021/08/16 01:18:44;;;;;;;7.07;5.72;;;;;;;19.11;62.82;99893.81;4899815;28;97895;-70
2021/08/16 01:21:12;;;;;;;7.38;5.35;;;;;;;19.07;63.02;99881.97;4901194;28;98097;-70
2021/08/16 01:23:38;;;;;;;7.10;5.50;;;;;;;19.04;63.05;99879.91;4901889;28;98332;-67
2021/08/16 01:26:04;;;;;;;7.05;5.30;;;;;;;19.02;63.22;99874.78;4900447;28;97884;-67
2021/08/16 01:28:31;;;;;;;8.27;5.70;;;;;;;19.00;62.89;99871.59;4867189;28;113965;-70
2021/08/16 01:30:59;;;;;;;6.40;5.43;;;;;;;18.98;62.81;99879.34;4912075;28;105620;-66
2021/08/16 01:33:26;;;;;;;7.97;6.07;;;;;;;18.95;62.56;99874.53;4921177;28;98496;-70
2021/08/16 01:35:52;;;;;;;8.30;5.88;;;;;;;18.87;62.83;99878.16;4919480;28;98158;-70
2021/08/16 01:38:24;;;;;;;8.77;6.13;;;;;;;18.81;62.58;99866.63;4920292;28;104954;-66
2021/08/16 01:40:50;;;;;;;6.93;5.78;;;;;;;18.83;63.06;99858.94;4904480;28;103866;-70
2021/08/16 01:43:16;;;;;;;7.63;5.50;;;;;;;18.85;63.05;99864.84;4923518;28;99462;-70
2021/08/16 01:45:43;;;;;;;7.32;6.38;;;;;;;18.85;62.95;99861.31;4923132;28;127508;-67
2021/08/16 01:48:11;;;;;;;8.48;5.70;;;;;;;18.85;62.94;99864.84;4921277;28;97957;-70
2021/08/16 01:50:37;;;;;;;8.00;6.18;;;;;;;18.85;62.54;99869.50;4923221;28;98413;-67
2021/08/16 01:53:03;;;;;;;6.80;5.68;;;;;;;18.84;62.56;99868.69;4900492;28;129804;-70
2021/08/16 01:55:29;;;;;;;7.72;6.18;;;;;;;18.83;62.96;99872.56;4900829;28;126096;-70
2021/08/16 01:57:56;;;;;;;8.35;5.85;;;;;;;18.83;63.09;99869.84;4909090;28;97877;-67
2021/08/16 02:00:22;;;;;;;7.53;5.82;;;;;;;18.85;62.94;99864.84;4920464;28;119882;-70
2021/08/16 02:02:48;;;;;;;6.97;5.47;;;;;;;18.84;62.65;99873.38;4903542;28;98813;-66
2021/08/16 02:05:14;;;;;;;6.80;6.10;;;;;;;18.80;62.27;99875.97;4903489;28;122168;-67
2021/08/16 02:07:40;;;;;;;7.55;6.30;;;;;;;18.75;62.39;99872.66;4903618;28;103980;-67
2021/08/16 02:10:07;;;;;;;7.38;6.25;;;;;;;18.72;62.38;99868.66;4902424;28;127791;-70
2021/08/16 02:12:33;;;;;;;7.55;6.13;;;;;;;18.71;62.63;99863.56;4903227;28;98828;-70
2021/08/16 02:14:59;;;;;;;6.90;6.10;;;;;;;18.66;62.84;99853.59;4902842;28;126800;-70
2021/08/16 02:17:25;;;;;;;6.90;6.20;;;;;;;18.62;62.69;99853.47;4902979;28;115993;-67
2021/08/16 02:19:52;;;;;;;7.68;6.05;;;;;;;18.56;62.81;99851.28;4900223;28;127967;-66
2021/08/16 02:22:18;;;;;;;9.50;5.80;;;;;;;18.51;63.00;99854.22;4903724;28;98462;-67
2021/08/16 02:24:44;;;;;;;8.30;6.30;;;;;;;18.44;62.92;99846.59;4900136;28;126415;-70
2021/08/16 02:27:10;;;;;;;7.55;6.13;;;;;;;18.40;62.98;99848.38;4901920;28;115258;-67
2021/08/16 02:29:36;;;;;;;6.65;5.95;;;;;;;18.36;63.12;99844.72;4919513;28;125820;-70
2021/08/16 02:32:03;;;;;;;7.30;6.13;;;;;;;18.29;63.22;99852.66;4919913;28;128350;-66
2021/08/16 02:34:29;;;;;;;7.13;6.43;;;;;;;18.18;63.41;99856.91;4921862;28;110841;-71
2021/08/16 02:36:55;;;;;;;7.32;6.40;;;;;;;18.05;63.65;99853.31;4922203;28;112957;-67
2021/08/16 02:39:21;;;;;;;9.18;6.60;;;;;;;17.96;63.79;99842.47;4923157;28;98285;-70
2021/08/16 02:41:47;;;;;;;9.73;6.10;;;;;;;17.92;64.12;99847.00;4921683;28;129013;-66
2021/08/16 02:44:14;;;;;;;11.50;6.47;;;;;;;17.85;64.11;99839.34;4922472;28;97771;-70
2021/08/16 02:46:40;;;;;;;8.88;6.72;;;;;;;17.80;64.10;99836.81;4901261;28;98634;-70
2021/08/16 02:49:06;;;;;;;8.38;6.40;;;;;;;17.77;64.35;99834.75;4900117;28;128334;-66
2021/08/16 02:51:32;;;;;;;7.07;6.05;;;;;;;17.78;64.55;99832.81;4883867;28;125988;-66
2021/08/16 02:53:58;;;;;;;7.97;6.28;;;;;;;17.81;64.59;99841.13;4889131;28;127687;-70
2021/08/16 02:56:24;;;;;;;9.13;6.10;;;;;;;17.83;64.34;99838.84;4900721;28;117279;-67
2021/08/16 02:58:50;;;;;;;8.15;6.32;;;;;;;17.82;64.12;99837.25;4902187;28;124602;-70
2021/08/16 03:01:16;;;;;;;8.40;6.43;;;;;;;17.79;64.26;99828.94;4910102;28;127121;-70
2021/08/16 03:03:42;;;;;;;7.72;6.45;;;;;;;17.76;64.34;99824.16;4921147;28;125936;-66
2021/08/16 03:06:08;;;;;;;9.73;6.72;;;;;;;17.75;64.57;99836.19;4903417;28;118305;-70
2021/08/16 03:08:34;;;;;;;8.65;6.20;;;;;;;17.75;64.51;99834.25;4921169;28;98349;-70
2021/08/16 03:11:02;;;;;;;6.60;5.75;;;;;;;17.75;64.36;99839.72;4921474;28;118023;-70
2021/08/16 03:13:28;;;;;;;7.57;6.05;;;;;;;17.72;64.02;99834.88;4920326;28;97876;-66
2021/08/16 03:15:54;;;;;;;7.05;6.20;;;;;;;17.68;63.82;99823.03;4892578;28;98199;-70
2021/08/16 03:18:20;;;;;;;7.70;6.85;;;;;;;17.65;64.20;99829.19;4903214;28;102775;-70
2021/08/16 03:20:46;;;;;;;7.95;6.22;;;;;;;17.61;64.50;99820.06;4901077;28;110631;-66
2021/08/16 03:23:12;;;;;;;8.60;6.32;;;;;;;17.53;64.57;99815.47;4902127;28;112526;-71
2021/08/16 03:25:38;;;;;;;9.80;6.60;;;;;;;17.50;64.83;99827.00;4884645;28;116558;-66
2021/08/16 03:28:05;;;;;;;9.77;6.15;;;;;;;17.47;64.62;99822.22;4867973;28;126407;-67
2021/08/16 03:30:31;;;;;;;7.20;6.10;;;;;;;17.48;64.65;99821.88;4900654;28;113066;-67
2021/08/16 03:32:57;;;;;;;9.13;6.20;;;;;;;17.50;64.65;99824.28;4910113;28;127212;-70
2021/08/16 03:35:23;;;;;;;7.82;5.90;;;;;;;17.52;64.66;99828.25;4922243;28;97868;-66
2021/08/16 03:37:49;;;;;;;7.78;5.90;;;;;;;17.55;64.61;99833.06;4887784;28;98195;-67
2021/08/16 03:40:15;;;;;;;6.95;6.25;;;;;;;17.58;64.46;99831.63;4919214;28;125339;-70
2021/08/16 03:42:41;;;;;;;8.18;6.28;;;;;;;17.61;64.57;99822.78;4921181;28;127837;-70
2021/08/16 03:45:16;;;;;;;8.25;6.30;;;;;;;17.61;64.25;99820.84;4903707;28;117499;-70
2021/08/16 03:47:43;;;;;;;6.90;6.15;;;;;;;17.65;64.49;99816.34;4904725;28;98094;-66
2021/08/16 03:50:10;;;;;;;7.20;5.97;;;;;;;17.67;64.69;99816.78;4907834;28;110342;-71
2021/08/16 03:52:36;;;;;;;7.80;5.82;;;;;;;17.68;64.45;99823.03;4901709;28;112186;-67
2021/08/16 03:55:02;;;;;;;7.15;6.07;;;;;;;17.64;64.46;99817.47;4900680;28;98419;-70
2021/08/16 03:57:28;;;;;;;7.78;5.65;;;;;;;17.62;64.65;99819.72;4911585;28;99251;-67
2021/08/16 03:59:54;;;;;;;6.97;6.15;;;;;;;17.63;64.58;99818.59;4919806;28;99124;-67
2021/08/16 04:02:21;;;;;;;6.68;5.97;;;;;;;17.64;64.83;99822.09;4919750;28;98262;-70
2021/08/16 04:04:47;;;;;;;6.80;5.72;;;;;;;17.65;64.76;99821.78;4919407;28;99443;-67
2021/08/16 04:07:13;;;;;;;6.20;5.60;;;;;;;17.65;64.50;99819.06;4884174;28;107586;-67
2021/08/16 04:09:39;;;;;;;7.57;5.95;;;;;;;17.63;64.34;99815.88;4901417;28;107082;-67
2021/08/16 04:12:06;;;;;;;7.00;6.20;;;;;;;17.61;64.49;99814.63;4901044;28;127235;-70
2021/08/16 04:14:32;;;;;;;8.73;6.35;;;;;;;17.62;64.37;99814.28;4902469;28;97810;-67
2021/08/16 04:16:58;;;;;;;7.38;5.90;;;;;;;17.64;64.78;99806.59;4901957;28;100883;-70
2021/08/16 04:19:24;;;;;;;10.05;6.13;;;;;;;17.66;64.75;99815.22;4901100;28;126840;-71
2021/08/16 04:21:50;;;;;;;10.38;6.50;;;;;;;17.70;64.48;99817.28;4900703;28;126521;-67
2021/08/16 04:24:16;;;;;;;9.60;6.75;;;;;;;17.67;64.45;99810.56;4903931;28;99515;-70
2021/08/16 04:26:42;;;;;;;8.93;6.53;;;;;;;17.65;64.80;99819.06;4921555;28;98980;-67
2021/08/16 04:29:08;;;;;;;7.95;6.03;;;;;;;17.60;64.26;99813.78;4918882;28;123383;-70
2021/08/16 04:31:34;;;;;;;9.32;6.45;;;;;;;17.57;64.69;99816.41;4920910;28;127464;-71
2021/08/16 04:34:00;;;;;;;9.52;6.72;;;;;;;17.49;64.83;99807.16;4921249;28;117628;-68
2021/08/16 04:36:27;;;;;;;8.82;6.63;;;;;;;17.44;65.07;99801.88;4920087;28;127549;-70
2021/08/16 04:38:53;;;;;;;7.80;6.15;;;;;;;17.41;65.39;99802.56;4910127;28;126700;-72
2021/08/16 04:41:19;;;;;;;9.88;6.03;;;;;;;17.46;65.60;99809.72;4897759;28;125077;-68
2021/08/16 04:43:45;;;;;;;8.68;6.70;;;;;;;17.49;65.40;99806.31;4901677;28;102207;-71
2021/08/16 04:46:11;;;;;;;9.60;6.55;;;;;;;17.48;65.44;99796.56;4897095;28;126046;-71
2021/08/16 04:48:37;;;;;;;9.27;6.45;;;;;;;17.48;65.50;99794.63;4899661;28;128113;-68
2021/08/16 04:51:03;;;;;;;8.57;6.43;;;;;;;17.49;65.94;99793.53;4903467;28;98339;-71
2021/08/16 04:53:29;;;;;;;8.30;6.55;;;;;;;17.51;65.58;99793.19;4903941;28;117162;-71
2021/08/16 04:55:55;;;;;;;11.13;6.65;;;;;;;17.52;65.75;99795.56;4898026;28;99003;-68
2021/08/16 04:58:21;;;;;;;10.07;6.20;;;;;;;17.52;65.58;99792.84;4899314;28;97946;-71
2021/08/16 05:00:47;;;;;;;10.15;6.07;;;;;;;17.59;65.81;99795.06;4879943;28;126462;-68
2021/08/16 05:03:13;;;;;;;7.78;6.18;;;;;;;17.63;65.78;99788.63;4898352;28;103093;-68
2021/08/16 05:05:47;;;;;;;7.93;6.25;;;;;;;17.70;65.72;99798.19;4896270;28;104649;-68
2021/08/16 05:08:13;;;;;;;8.18;5.85;;;;;;;17.78;65.61;99797.38;4899531;28;98623;-71
2021/08/16 05:10:40;;;;;;;9.32;5.90;;;;;;;17.84;65.46;99804.22;4899618;28;98418;-72
2021/08/16 05:13:06;;;;;;;8.95;6.80;;;;;;;17.93;65.06;99804.97;4883639;28;98167;-71
2021/08/16 05:15:32;;;;;;;8.80;6.32;;;;;;;18.02;65.36;99799.44;4903368;28;126944;-71
2021/08/16 05:18:00;;;;;;;7.60;6.22;;;;;;;18.12;64.95;99801.78;4903280;28;128848;-68
2021/08/16 05:20:26;;;;;;;9.88;6.45;;;;;;;18.19;64.77;99803.94;4904425;28;98539;-68
2021/08/16 05:22:52;;;;;;;8.23;6.00;;;;;;;18.25;64.73;99795.25;4904177;28;97904;-71
2021/08/16 05:25:19;;;;;;;7.95;6.28;;;;;;;18.29;64.53;99793.44;4903659;28;119270;-71
2021/08/16 05:27:48;;;;;;;10.40;6.38;;;;;;;18.39;64.36;99794.94;4903436;28;99161;-71
2021/08/16 05:30:14;;;;;;;7.30;6.25;;;;;;;18.49;64.06;99799.97;4903440;28;112386;-70
2021/08/16 05:32:40;;;;;;;8.02;6.28;;;;;;;18.60;63.89;99794.91;4905343;28;98198;-68
2021/08/16 05:35:07;;;;;;;6.40;5.75;;;;;;;18.72;63.64;99794.19;4901620;28;98104;-70
2021/08/16 05:37:33;;;;;;;8.88;5.75;;;;;;;18.86;63.70;99794.63;4903886;28;97967;-68
2021/08/16 05:39:59;;;;;;;6.50;5.35;;;;;;;19.00;63.38;99792.41;4899272;28;127246;-70
2021/08/16 05:42:25;;;;;;;6.93;5.45;;;;;;;19.04;63.58;99795.25;4901896;28;116708;-68
2021/08/16 05:44:51;;;;;;;7.03;5.35;;;;;;;19.08;63.48;99793.44;4901775;28;111266;-70
2021/08/16 05:47:17;;;;;;;7.78;5.35;;;;;;;19.19;63.14;99797.31;4900384;28;127892;-70
2021/08/16 05:49:44;;;;;;;6.95;5.10;;;;;;;19.31;63.08;99801.97;4900879;28;127437;-70
2021/08/16 05:52:10;;;;;;;6.97;4.97;;;;;;;19.37;63.04;99800.59;4903870;28;116736;-70
2021/08/16 05:54:36;;;;;;;6.80;4.68;;;;;;;19.51;62.86;99803.00;4904173;28;98710;-70
2021/08/16 05:57:02;;;;;;;7.22;5.13;;;;;;;19.81;62.31;99806.31;4884910;28;127960;-66
2021/08/16 05:59:28;;;;;;;8.57;4.80;;;;;;;20.07;62.01;99814.88;4901682;28;118280;-67
2021/08/16 06:01:54;;;;;;;5.68;4.70;;;;;;;20.30;61.37;99804.19;4894933;28;117187;-67
2021/08/16 06:04:20;;;;;;;6.93;4.75;;;;;;;20.55;60.85;99807.66;4902217;28;98021;-69
2021/08/16 06:06:46;;;;;;;5.28;4.78;;;;;;;20.79;60.73;99811.41;4912020;28;127993;-67
2021/08/16 06:09:12;;;;;;;4.75;4.15;;;;;;;21.02;60.26;99811.59;4921556;28;98075;-67
2021/08/16 06:11:38;;;;;;;6.35;4.90;;;;;;;21.24;59.65;99808.25;4922739;28;117600;-70
2021/08/16 06:14:04;;;;;;;6.13;4.57;;;;;;;21.51;59.24;99814.00;4922590;28;126316;-71
2021/08/16 06:16:30;;;;;;;6.70;4.55;;;;;;;21.74;58.59;99808.66;4921410;28;113870;-70
2021/08/16 06:18:56;;;;;;;6.30;4.68;;;;;;;21.99;58.63;99815.47;4921825;28;126008;-70
2021/08/16 06:21:22;;;;;;;5.40;4.10;;;;;;;22.25;58.13;99822.31;4922249;28;102588;-70
2021/08/16 06:23:48;;;;;;;8.27;4.47;;;;;;;22.50;57.20;99820.03;4904375;28;123591;-70
2021/08/16 06:26:15;;;;;;;7.57;4.03;;;;;;;22.78;56.85;99817.81;4919662;28;99039;-65
2021/08/16 06:28:41;;;;;;;5.38;4.35;;;;;;;23.07;56.47;99823.06;4906610;28;98650;-65
2021/08/16 06:31:08;;;;;;;5.40;3.92;;;;;;;23.37;55.82;99821.19;4903510;28;98092;-70
2021/08/16 06:33:40;;;;;;;5.05;4.03;;;;;;;23.69;55.42;99823.66;4904908;28;98491;-65
2021/08/16 06:36:06;;;;;;;5.18;3.95;;;;;;;24.10;54.60;99810.88;4896310;28;99108;-70
2021/08/16 06:38:32;;;;;;;4.88;3.53;;;;;;;24.61;53.79;99813.06;4921226;28;97797;-65
2021/08/16 06:40:58;;;;;;;5.93;4.03;;;;;;;25.20;52.56;99811.28;4908443;28;108229;-65
2021/08/16 06:43:27;;;;;;;4.60;3.55;;;;;;;25.80;51.27;99817.63;4909081;28;115866;-66
2021/08/16 06:45:53;;;;;;;6.05;3.58;;;;;;;26.49;49.85;99814.00;4915904;28;98649;-70
2021/08/16 06:48:19;;;;;;;6.35;4.05;;;;;;;27.08;48.36;99815.28;4920894;28;98750;-71
2021/08/16 06:50:46;;;;;;;4.20;3.25;;;;;;;27.65;46.52;99820.78;4916333;28;119535;-70
2021/08/16 06:53:13;;;;;;;5.43;3.72;;;;;;;28.23;45.92;99823.44;4917607;28;98317;-66
2021/08/16 06:55:42;;;;;;;5.78;3.80;;;;;;;28.76;45.00;99820.38;4905545;28;98793;-71
2021/08/16 06:58:08;;;;;;;5.93;3.60;;;;;;;29.24;43.11;99830.75;4903669;28;98092;-66
2021/08/16 07:00:35;;;;;;;4.82;3.50;;;;;;;29.91;42.34;99828.56;4903390;28;97738;-71
2021/08/16 07:03:01;;;;;;;5.68;3.63;;;;;;;29.97;41.67;99829.66;4914337;28;98488;-66
2021/08/16 07:05:27;;;;;;;4.50;3.50;;;;;;;30.22;41.05;99828.59;4922740;28;100936;-66
2021/08/16 07:07:53;;;;;;;4.43;3.40;;;;;;;29.56;42.18;99835.25;4907221;28;118822;-72
2021/08/16 07:10:22;;;;;;;4.15;3.70;;;;;;;30.05;41.33;99833.94;4901849;28;118053;-66
2021/08/16 07:12:48;;;;;;;5.82;3.70;;;;;;;29.98;40.50;99833.22;4905651;28;99119;-71
2021/08/16 07:15:15;;;;;;;5.47;3.53;;;;;;;29.64;41.53;99836.78;4921020;28;126796;-70
2021/08/16 07:17:41;;;;;;;4.30;3.70;;;;;;;29.89;41.13;99841.28;4922151;28;97847;-71
2021/08/16 07:20:09;;;;;;;6.32;3.80;;;;;;;29.52;41.36;99840.81;4904956;28;112122;-66
2021/08/16 07:22:36;;;;;;;5.32;3.80;;;;;;;29.78;40.95;99828.28;4902644;28;97919;-66
2021/08/16 07:25:02;;;;;;;5.35;3.60;;;;;;;29.95;40.64;99831.28;4903127;28;98399;-66
2021/08/16 07:27:28;;;;;;;4.40;3.47;;;;;;;30.17;39.80;99838.19;4901811;28;117010;-70
2021/08/16 07:29:54;;;;;;;8.07;3.33;;;;;;;30.36;39.53;99835.97;4909999;28;97967;-66
2021/08/16 07:32:20;;;;;;;5.40;3.38;;;;;;;30.59;39.46;99827.72;4919005;28;126493;-71
2021/08/16 07:34:46;;;;;;;5.00;2.90;;;;;;;30.85;38.73;99822.59;4919729;28;98166;-71
2021/08/16 07:37:14;;;;;;;3.78;3.10;;;;;;;31.10;38.27;99825.00;4901599;28;127536;-66
2021/08/16 07:39:40;;;;;;;5.47;2.97;;;;;;;31.38;38.32;99824.53;4920243;28;97934;-66
2021/08/16 07:42:06;;;;;;;4.65;3.10;;;;;;;31.62;37.64;99821.72;4920409;28;98490;-71
2021/08/16 07:44:32;;;;;;;3.75;2.83;;;;;;;31.83;37.50;99815.75;4902971;28;98456;-72
2021/08/16 07:46:59;;;;;;;3.25;2.95;;;;;;;32.03;36.84;99821.38;4901191;28;97945;-71
2021/08/16 07:49:30;;;;;;;5.53;3.10;;;;;;;32.24;36.27;99815.34;4895385;28;97954;-71
2021/08/16 07:51:56;;;;;;;4.47;2.90;;;;;;;32.54;35.70;99816.34;4900677;28;98282;-66
2021/08/16 07:54:22;;;;;;;4.10;2.78;;;;;;;32.79;35.15;99814.97;4901915;28;115259;-66
2021/08/16 07:56:52;;;;;;;3.85;2.75;;;;;;;33.04;34.81;99815.16;4899808;28;127214;-66
2021/08/16 07:59:18;;;;;;;3.30;2.53;;;;;;;33.28;33.96;99814.97;4919152;28;98199;-71
2021/08/16 08:01:44;;;;;;;6.07;2.60;;;;;;;33.50;33.55;99812.47;4921501;28;98769;-67
2021/08/16 08:04:11;;;;;;;3.17;2.25;;;;;;;33.75;33.05;99817.34;4918249;28;98025;-72
2021/08/16 08:06:39;;;;;;;3.72;2.33;;;;;;;34.12;32.33;99813.16;4919438;28;97919;-67
2021/08/16 08:09:05;;;;;;;4.50;2.33;;;;;;;34.44;31.86;99815.78;4903199;28;98111;-72
2021/08/16 08:11:31;;;;;;;2.78;2.13;;;;;;;34.80;31.10;99808.31;4902340;28;98810;-67
2021/08/16 08:13:57;;;;;;;3.70;2.40;;;;;;;35.24;31.35;99820.47;4916878;28;127645;-67
2021/08/16 08:16:23;;;;;;;3.08;2.25;;;;;;;35.80;30.52;99816.91;4901412;28;125913;-67
2021/08/16 08:18:49;;;;;;;3.78;2.30;;;;;;;36.34;29.18;99829.75;4922356;28;103689;-71
2021/08/16 08:21:16;;;;;;;3.08;2.33;;;;;;;36.91;28.30;99826.75;4901555;28;126068;-71
2021/08/16 08:23:42;;;;;;;4.75;2.10;;;;;;;37.52;27.46;99827.84;4921083;28;97651;-67
2021/08/16 08:26:08;;;;;;;4.47;2.30;;;;;;;38.28;26.64;99837.31;4909752;28;97623;-72
2021/08/16 08:28:34;;;;;;;4.75;2.60;;;;;;;38.92;25.42;99838.38;4902174;28;116906;-72
2021/08/16 08:31:00;;;;;;;6.15;2.42;;;;;;;39.45;25.84;99843.38;4900810;28;118520;-67
2021/08/16 08:33:26;;;;;;;5.45;2.30;;;;;;;40.08;24.72;99826.38;4900432;28;127828;-71
2021/08/16 08:35:52;;;;;;;3.67;2.42;;;;;;;40.60;24.36;99823.94;4903412;28;98225;-72
2021/08/16 08:38:18;;;;;;;3.90;2.40;;;;;;;40.99;23.77;99832.25;4905900;28;114998;-67
2021/08/16 08:40:45;;;;;;;4.53;2.10;;;;;;;41.44;23.27;99836.47;4884192;28;98612;-67
2021/08/16 08:43:12;;;;;;;5.13;2.55;;;;;;;41.91;22.51;99826.72;4901483;28;98604;-72
2021/08/16 08:45:39;;;;;;;5.00;2.35;;;;;;;42.21;21.95;99832.16;4901737;28;98032;-67
2021/08/16 08:48:06;;;;;;;4.20;2.50;;;;;;;42.29;21.92;99827.59;4899785;28;98105;-67
2021/08/16 08:50:32;;;;;;;4.75;2.42;;;;;;;42.66;21.59;99841.03;4901148;28;127805;-73
2021/08/16 08:52:59;;;;;;;3.65;2.78;;;;;;;42.38;21.64;99832.31;4907072;28;128784;-72
2021/08/16 08:55:26;;;;;;;5.88;2.58;;;;;;;41.84;21.54;99832.03;4923016;28;98507;-71
2021/08/16 08:57:52;;;;;;;5.22;2.30;;;;;;;42.01;21.35;99832.97;4907256;28;97848;-71
2021/08/16 09:00:19;;;;;;;4.82;2.85;;;;;;;42.74;20.73;99841.34;4902358;28;125244;-67
2021/08/16 09:03:04;;;;;;;4.45;2.50;;;;;;;43.50;20.33;99821.66;4904190;28;99193;-67
2021/08/16 09:05:31;;;;;;;4.80;2.70;;;;;;;43.14;19.86;99826.13;4904228;28;118706;-71
2021/08/16 09:08:00;;;;;;;3.50;2.28;;;;;;;42.91;19.74;99825.22;4905095;28;97871;-67
2021/08/16 09:10:27;;;;;;;3.00;2.15;;;;;;;42.97;19.92;99823.19;4905073;28;98180;-71
2021/08/16 09:12:59;;;;;;;4.88;2.45;;;;;;;41.90;21.36;99830.06;4904191;28;98154;-67
2021/08/16 09:15:25;;;;;;;3.60;2.17;;;;;;;42.05;20.84;99818.59;4903704;28;97823;-67
2021/08/16 09:17:52;;;;;;;3.35;2.13;;;;;;;40.26;22.32;99814.94;4903241;28;97921;-67
2021/08/16 09:20:32;;;;;;;5.68;2.20;;;;;;;40.68;22.14;99814.59;4910101;28;108690;-72
2021/08/16 09:23:01;;;;;;;3.33;1.83;;;;;;;41.50;20.79;99820.31;4917493;28;98769;-67
2021/08/16 09:25:30;;;;;;;6.47;2.25;;;;;;;41.59;20.66;99825.06;4921616;28;97970;-67
2021/08/16 09:27:56;;;;;;;3.78;2.25;;;;;;;41.34;21.00;99820.88;4921803;28;97953;-67
2021/08/16 09:30:39;;;;;;;4.05;2.20;;;;;;;41.16;21.95;99811.44;4923175;28;111066;-73
2021/08/16 09:33:16;;;;;;;4.65;2.10;;;;;;;41.03;21.93;99816.63;4923882;28;98450;-72
2021/08/16 09:35:57;;;;;;;4.00;1.92;;;;;;;40.04;23.04;99812.47;4921250;28;99134;-72
2021/08/16 09:38:39;;;;;;;3.72;2.00;;;;;;;40.28;22.40;99809.56;4902149;28;105722;-72
2021/08/16 09:41:18;;;;;;;3.10;2.05;;;;;;;38.39;23.89;99802.28;4911704;28;98091;-73
2021/08/16 09:43:44;;;;;;;3.92;2.20;;;;;;;37.00;25.06;99807.16;4904601;28;103414;-67
2021/08/16 09:46:17;;;;;;;3.67;2.20;;;;;;;37.07;24.86;99800.47;4902801;28;98025;-73
2021/08/16 09:48:44;;;;;;;3.97;2.10;;;;;;;38.20;23.09;99810.78;4906865;28;97884;-72
2021/08/16 09:51:21;;;;;;;3.95;2.50;;;;;;;38.79;23.10;99801.97;4922583;28;99048;-67
2021/08/16 09:53:48;;;;;;;6.43;2.55;;;;;;;37.69;24.92;99808.66;4924232;28;98033;-73
2021/08/16 09:56:18;;;;;;;6.93;2.90;;;;;;;36.97;26.53;99799.66;4922953;28;112446;-67
2021/08/16 09:58:44;;;;;;;5.18;2.55;;;;;;;37.63;26.52;99798.50;4906281;28;98137;-68
2021/08/16 10:01:11;;;;;;;4.80;2.08;;;;;;;38.80;25.45;99789.47;4904887;28;100189;-69
2021/08/16 10:03:40;;;;;;;5.88;2.30;;;;;;;36.45;27.00;99778.84;4902537;28;127998;-68
2021/08/16 10:06:08;;;;;;;4.35;2.70;;;;;;;36.10;27.51;99762.19;4902994;28;98276;-68
2021/08/16 10:08:39;;;;;;;4.07;2.35;;;;;;;35.55;28.50;99758.22;4905680;28;98145;-68
2021/08/16 10:11:05;;;;;;;4.25;2.80;;;;;;;36.62;27.05;99759.75;4923462;28;98233;-68
2021/08/16 10:13:31;;;;;;;5.68;2.50;;;;;;;35.96;27.46;99773.91;4903467;28;119316;-68
2021/08/16 10:16:01;;;;;;;5.25;2.50;;;;;;;37.96;25.60;99767.69;4869159;28;111812;-68
2021/08/16 10:18:39;;;;;;;4.93;2.40;;;;;;;39.36;23.64;99759.69;4903834;28;97873;-69
2021/08/16 10:21:05;;;;;;;3.45;2.20;;;;;;;39.27;23.82;99751.31;4901639;28;98508;-68
2021/08/16 10:23:31;;;;;;;4.85;2.10;;;;;;;38.44;24.62;99751.78;4913884;28;112349;-68
2021/08/16 10:25:57;;;;;;;3.88;2.30;;;;;;;38.29;24.46;99750.91;4893267;28;126882;-69
2021/08/16 10:28:29;;;;;;;4.60;2.50;;;;;;;38.76;24.37;99750.22;4903580;28;98097;-69
2021/08/16 10:30:57;;;;;;;5.13;2.28;;;;;;;39.25;23.19;99731.28;4912531;28;98750;-67
2021/08/16 10:33:23;;;;;;;3.90;2.28;;;;;;;37.72;25.09;99733.84;4920600;28;98201;-69
2021/08/16 10:35:50;;;;;;;3.55;2.80;;;;;;;36.96;25.86;99743.97;4920802;28;98031;-66
2021/08/16 10:38:17;;;;;;;4.47;2.60;;;;;;;36.96;25.54;99730.72;4921912;28;98322;-67
2021/08/16 10:40:51;;;;;;;6.15;3.00;;;;;;;38.41;23.71;99735.09;4922328;28;98110;-67
2021/08/16 10:43:18;;;;;;;4.25;3.10;;;;;;;38.52;23.50;99738.16;4920852;28;98384;-69
2021/08/16 10:45:52;;;;;;;4.53;2.63;;;;;;;38.77;23.25;99742.53;4920905;28;98187;-69
2021/08/16 10:48:26;;;;;;;5.70;2.70;;;;;;;39.24;22.82;99735.38;4922156;28;97852;-67
2021/08/16 10:51:06;;;;;;;5.90;2.80;;;;;;;37.32;24.50;99740.41;4919235;28;98277;-67
2021/08/16 10:53:33;;;;;;;5.07;3.00;;;;;;;36.53;25.34;99738.09;4922915;28;98755;-67
2021/08/16 10:55:59;;;;;;;4.93;2.70;;;;;;;35.62;25.83;99730.72;4922805;28;98132;-70
2021/08/16 10:58:25;;;;;;;5.22;2.70;;;;;;;35.34;26.50;99732.50;4920730;28;101085;-69
2021/08/16 11:00:51;;;;;;;5.13;2.85;;;;;;;35.08;26.90;99723.41;4907205;28;121595;-69
2021/08/16 11:03:24;;;;;;;4.18;2.92;;;;;;;35.31;26.49;99727.03;4916994;28;126987;-67
2021/08/16 11:05:50;;;;;;;4.35;2.90;;;;;;;35.59;25.47;99722.44;4920185;28;98013;-67
2021/08/16 11:08:16;;;;;;;5.00;2.53;;;;;;;34.68;27.17;99723.16;4920350;28;117861;-68
2021/08/16 11:10:49;;;;;;;5.35;2.70;;;;;;;34.14;27.79;99733.19;4919162;28;126341;-68
2021/08/16 11:13:21;;;;;;;5.85;2.63;;;;;;;34.08;27.18;99726.63;4903913;28;98822;-67
2021/08/16 11:15:48;;;;;;;6.28;2.97;;;;;;;33.69;27.41;99728.53;4902389;28;113479;-68
2021/08/16 11:18:21;;;;;;;4.13;2.78;;;;;;;33.30;28.15;99735.16;4903153;28;98340;-67
2021/08/16 11:21:00;;;;;;;6.47;2.50;;;;;;;34.03;27.61;99720.78;4902379;28;98245;-67
2021/08/16 11:23:27;;;;;;;4.43;2.70;;;;;;;35.02;26.18;99730.03;4902514;28;98246;-68
2021/08/16 11:25:55;;;;;;;5.78;2.50;;;;;;;35.09;26.47;99738.19;4901948;28;98534;-69
2021/08/16 11:28:29;;;;;;;5.35;2.30;;;;;;;34.62;26.51;99724.94;4901074;28;97894;-66